sensor_id;sensor_type;location;lat;lon;timestamp;temperature;humidity
49132;DHT22;35149;51.196;6.204;2023-04-25T00:00:18;10.40;59.70
49132;DHT22;35149;51.196;6.204;2023-04-25T00:02:46;10.40;59.90
49132;DHT22;35149;51.196;6.204;2023-04-25T00:05:14;10.40;60.00
49132;DHT22;35149;51.196;6.204;2023-04-25T00:07:47;10.30;60.10
49132;DHT22;35149;51.196;6.204;2023-04-25T00:10:13;10.30;60.00
49132;DHT22;35149;51.196;6.204;2023-04-25T00:12:40;10.30;60.20
49132;DHT22;35149;51.196;6.204;2023-04-25T00:15:08;10.30;60.40
49132;DHT22;35149;51.196;6.204;2023-04-25T00:17:35;10.30;60.70
49132;DHT22;35149;51.196;6.204;2023-04-25T00:20:05;10.30;60.90
49132;DHT22;35149;51.196;6.204;2023-04-25T00:22:32;10.30;61.10
49132;DHT22;35149;51.196;6.204;2023-04-25T00:25:01;10.40;61.30
49132;DHT22;35149;51.196;6.204;2023-04-25T00:27:27;10.50;61.30
49132;DHT22;35149;51.196;6.204;2023-04-25T00:29:54;10.50;61.30
49132;DHT22;35149;51.196;6.204;2023-04-25T00:32:21;10.50;61.30
49132;DHT22;35149;51.196;6.204;2023-04-25T00:34:50;10.50;61.30
49132;DHT22;35149;51.196;6.204;2023-04-25T00:37:17;10.60;61.20
49132;DHT22;35149;51.196;6.204;2023-04-25T00:39:44;10.60;61.20
49132;DHT22;35149;51.196;6.204;2023-04-25T00:42:11;10.60;61.20
49132;DHT22;35149;51.196;6.204;2023-04-25T00:44:38;10.70;61.20
49132;DHT22;35149;51.196;6.204;2023-04-25T00:47:06;10.70;61.30
49132;DHT22;35149;51.196;6.204;2023-04-25T00:49:35;10.70;61.40
49132;DHT22;35149;51.196;6.204;2023-04-25T00:52:04;10.80;61.20
49132;DHT22;35149;51.196;6.204;2023-04-25T00:54:31;10.80;61.20
49132;DHT22;35149;51.196;6.204;2023-04-25T00:56:58;10.80;61.20
49132;DHT22;35149;51.196;6.204;2023-04-25T00:59:25;10.80;61.20
49132;DHT22;35149;51.196;6.204;2023-04-25T01:01:54;10.80;61.20
49132;DHT22;35149;51.196;6.204;2023-04-25T01:04:24;10.80;61.20
49132;DHT22;35149;51.196;6.204;2023-04-25T01:06:52;10.80;61.20
49132;DHT22;35149;51.196;6.204;2023-04-25T01:09:20;10.80;61.10
49132;DHT22;35149;51.196;6.204;2023-04-25T01:11:47;10.80;61.10
49132;DHT22;35149;51.196;6.204;2023-04-25T01:14:14;10.80;61.20
49132;DHT22;35149;51.196;6.204;2023-04-25T01:16:41;10.80;61.20
49132;DHT22;35149;51.196;6.204;2023-04-25T01:19:10;10.80;61.20
49132;DHT22;35149;51.196;6.204;2023-04-25T01:21:40;10.80;61.20
49132;DHT22;35149;51.196;6.204;2023-04-25T01:24:07;10.80;61.00
49132;DHT22;35149;51.196;6.204;2023-04-25T01:26:35;10.70;61.00
49132;DHT22;35149;51.196;6.204;2023-04-25T01:29:04;10.70;61.10
49132;DHT22;35149;51.196;6.204;2023-04-25T01:31:32;10.60;61.00
49132;DHT22;35149;51.196;6.204;2023-04-25T01:34:00;10.60;61.10
49132;DHT22;35149;51.196;6.204;2023-04-25T01:36:28;10.50;61.10
49132;DHT22;35149;51.196;6.204;2023-04-25T01:38:55;10.50;61.20
49132;DHT22;35149;51.196;6.204;2023-04-25T01:41:27;10.40;61.20
49132;DHT22;35149;51.196;6.204;2023-04-25T01:43:54;10.40;61.50
49132;DHT22;35149;51.196;6.204;2023-04-25T01:46:21;10.30;61.40
49132;DHT22;35149;51.196;6.204;2023-04-25T01:48:49;10.30;61.50
49132;DHT22;35149;51.196;6.204;2023-04-25T01:51:19;10.30;61.70
49132;DHT22;35149;51.196;6.204;2023-04-25T01:53:46;10.20;61.80
49132;DHT22;35149;51.196;6.204;2023-04-25T01:56:13;10.10;61.90
49132;DHT22;35149;51.196;6.204;2023-04-25T01:58:39;10.10;62.00
49132;DHT22;35149;51.196;6.204;2023-04-25T02:01:35;10.10;62.20
49132;DHT22;35149;51.196;6.204;2023-04-25T02:04:19;10.00;62.20
49132;DHT22;35149;51.196;6.204;2023-04-25T02:06:46;10.00;62.30
49132;DHT22;35149;51.196;6.204;2023-04-25T02:09:14;10.00;62.50
49132;DHT22;35149;51.196;6.204;2023-04-25T02:11:51;9.90;62.60
49132;DHT22;35149;51.196;6.204;2023-04-25T02:14:33;10.00;62.80
49132;DHT22;35149;51.196;6.204;2023-04-25T02:17:24;10.00;63.20
49132;DHT22;35149;51.196;6.204;2023-04-25T02:19:51;10.00;62.50
49132;DHT22;35149;51.196;6.204;2023-04-25T02:22:19;10.00;63.00
49132;DHT22;35149;51.196;6.204;2023-04-25T02:24:49;9.90;63.10
49132;DHT22;35149;51.196;6.204;2023-04-25T02:27:23;10.00;63.30
49132;DHT22;35149;51.196;6.204;2023-04-25T02:29:49;10.00;63.60
49132;DHT22;35149;51.196;6.204;2023-04-25T02:32:19;10.00;63.50
49132;DHT22;35149;51.196;6.204;2023-04-25T02:34:46;10.00;63.70
49132;DHT22;35149;51.196;6.204;2023-04-25T02:37:19;10.00;63.70
49132;DHT22;35149;51.196;6.204;2023-04-25T02:39:45;10.10;63.80
49132;DHT22;35149;51.196;6.204;2023-04-25T02:42:13;10.10;63.90
49132;DHT22;35149;51.196;6.204;2023-04-25T02:44:40;10.10;63.90
49132;DHT22;35149;51.196;6.204;2023-04-25T02:47:07;10.10;63.90
49132;DHT22;35149;51.196;6.204;2023-04-25T02:49:35;10.10;63.90
49132;DHT22;35149;51.196;6.204;2023-04-25T02:52:02;10.20;63.90
49132;DHT22;35149;51.196;6.204;2023-04-25T02:54:32;10.20;63.90
49132;DHT22;35149;51.196;6.204;2023-04-25T02:56:59;10.20;63.80
49132;DHT22;35149;51.196;6.204;2023-04-25T02:59:31;10.20;63.80
49132;DHT22;35149;51.196;6.204;2023-04-25T03:02:01;10.20;63.60
49132;DHT22;35149;51.196;6.204;2023-04-25T03:04:28;10.20;63.60
49132;DHT22;35149;51.196;6.204;2023-04-25T03:06:55;10.20;63.60
49132;DHT22;35149;51.196;6.204;2023-04-25T03:09:22;10.20;63.70
49132;DHT22;35149;51.196;6.204;2023-04-25T03:11:49;10.20;63.70
49132;DHT22;35149;51.196;6.204;2023-04-25T03:14:21;10.20;63.80
49132;DHT22;35149;51.196;6.204;2023-04-25T03:16:47;10.20;63.70
49132;DHT22;35149;51.196;6.204;2023-04-25T03:19:16;10.20;63.70
49132;DHT22;35149;51.196;6.204;2023-04-25T03:21:44;10.20;63.70
49132;DHT22;35149;51.196;6.204;2023-04-25T03:24:12;10.20;63.80
49132;DHT22;35149;51.196;6.204;2023-04-25T03:26:38;10.20;63.80
49132;DHT22;35149;51.196;6.204;2023-04-25T03:29:05;10.10;63.80
49132;DHT22;35149;51.196;6.204;2023-04-25T03:31:33;10.20;63.80
49132;DHT22;35149;51.196;6.204;2023-04-25T03:34:00;10.20;63.80
49132;DHT22;35149;51.196;6.204;2023-04-25T03:36:28;10.10;63.70
49132;DHT22;35149;51.196;6.204;2023-04-25T03:38:54;10.10;63.80
49132;DHT22;35149;51.196;6.204;2023-04-25T03:41:24;10.10;63.80
49132;DHT22;35149;51.196;6.204;2023-04-25T03:43:55;10.10;63.90
49132;DHT22;35149;51.196;6.204;2023-04-25T03:46:22;10.10;63.80
49132;DHT22;35149;51.196;6.204;2023-04-25T03:48:49;10.00;63.80
49132;DHT22;35149;51.196;6.204;2023-04-25T03:51:26;10.00;63.90
49132;DHT22;35149;51.196;6.204;2023-04-25T03:53:53;10.00;63.90
49132;DHT22;35149;51.196;6.204;2023-04-25T03:56:29;10.00;64.00
49132;DHT22;35149;51.196;6.204;2023-04-25T03:59:04;10.00;64.10
49132;DHT22;35149;51.196;6.204;2023-04-25T04:01:31;9.90;64.10
49132;DHT22;35149;51.196;6.204;2023-04-25T04:04:00;10.00;64.30
49132;DHT22;35149;51.196;6.204;2023-04-25T04:06:31;9.90;64.20
49132;DHT22;35149;51.196;6.204;2023-04-25T04:09:07;10.00;64.30
49132;DHT22;35149;51.196;6.204;2023-04-25T04:11:41;9.90;64.20
49132;DHT22;35149;51.196;6.204;2023-04-25T04:14:08;9.90;64.10
49132;DHT22;35149;51.196;6.204;2023-04-25T04:16:40;9.90;64.00
49132;DHT22;35149;51.196;6.204;2023-04-25T04:19:08;9.90;64.00
49132;DHT22;35149;51.196;6.204;2023-04-25T04:21:35;10.00;64.10
49132;DHT22;35149;51.196;6.204;2023-04-25T04:24:02;9.90;64.00
49132;DHT22;35149;51.196;6.204;2023-04-25T04:26:38;9.90;64.10
49132;DHT22;35149;51.196;6.204;2023-04-25T04:29:22;9.90;64.10
49132;DHT22;35149;51.196;6.204;2023-04-25T04:32:04;9.90;64.10
49132;DHT22;35149;51.196;6.204;2023-04-25T04:34:34;9.90;64.20
49132;DHT22;35149;51.196;6.204;2023-04-25T04:37:01;9.90;64.30
49132;DHT22;35149;51.196;6.204;2023-04-25T04:39:31;9.90;64.40
49132;DHT22;35149;51.196;6.204;2023-04-25T04:42:09;9.90;64.40
49132;DHT22;35149;51.196;6.204;2023-04-25T04:44:55;9.90;64.40
49132;DHT22;35149;51.196;6.204;2023-04-25T04:47:25;9.90;64.40
49132;DHT22;35149;51.196;6.204;2023-04-25T04:50:12;9.90;64.40
49132;DHT22;35149;51.196;6.204;2023-04-25T04:52:58;9.90;64.30
49132;DHT22;35149;51.196;6.204;2023-04-25T04:55:45;9.90;64.30
49132;DHT22;35149;51.196;6.204;2023-04-25T04:58:44;9.90;64.30
49132;DHT22;35149;51.196;6.204;2023-04-25T05:01:31;10.00;64.30
49132;DHT22;35149;51.196;6.204;2023-04-25T05:04:05;10.00;64.30
49132;DHT22;35149;51.196;6.204;2023-04-25T05:06:45;10.00;64.50
49132;DHT22;35149;51.196;6.204;2023-04-25T05:09:27;10.00;64.40
49132;DHT22;35149;51.196;6.204;2023-04-25T05:12:27;10.00;64.40
49132;DHT22;35149;51.196;6.204;2023-04-25T05:15:31;10.10;64.40
49132;DHT22;35149;51.196;6.204;2023-04-25T05:18:16;10.10;64.40
49132;DHT22;35149;51.196;6.204;2023-04-25T05:21:05;10.10;64.30
49132;DHT22;35149;51.196;6.204;2023-04-25T05:23:48;10.20;64.40
49132;DHT22;35149;51.196;6.204;2023-04-25T05:26:41;10.20;64.30
49132;DHT22;35149;51.196;6.204;2023-04-25T05:29:27;10.20;64.20
49132;DHT22;35149;51.196;6.204;2023-04-25T05:32:01;10.20;64.20
49132;DHT22;35149;51.196;6.204;2023-04-25T05:34:30;10.30;64.30
49132;DHT22;35149;51.196;6.204;2023-04-25T05:37:04;10.30;64.30
49132;DHT22;35149;51.196;6.204;2023-04-25T05:39:39;10.30;64.10
49132;DHT22;35149;51.196;6.204;2023-04-25T05:42:10;10.40;64.00
49132;DHT22;35149;51.196;6.204;2023-04-25T05:44:55;10.40;63.90
49132;DHT22;35149;51.196;6.204;2023-04-25T05:47:29;10.40;63.90
49132;DHT22;35149;51.196;6.204;2023-04-25T05:50:07;10.50;63.80
49132;DHT22;35149;51.196;6.204;2023-04-25T05:53:07;10.50;64.00
49132;DHT22;35149;51.196;6.204;2023-04-25T05:55:41;10.60;63.80
49132;DHT22;35149;51.196;6.204;2023-04-25T05:58:20;10.60;63.60
49132;DHT22;35149;51.196;6.204;2023-04-25T06:00:50;10.70;63.50
49132;DHT22;35149;51.196;6.204;2023-04-25T06:03:18;10.70;63.30
49132;DHT22;35149;51.196;6.204;2023-04-25T06:05:47;10.70;63.30
49132;DHT22;35149;51.196;6.204;2023-04-25T06:08:14;10.80;63.20
49132;DHT22;35149;51.196;6.204;2023-04-25T06:10:40;10.80;63.40
49132;DHT22;35149;51.196;6.204;2023-04-25T06:13:11;10.80;63.30
49132;DHT22;35149;51.196;6.204;2023-04-25T06:15:38;10.80;63.30
49132;DHT22;35149;51.196;6.204;2023-04-25T06:18:05;10.80;62.90
49132;DHT22;35149;51.196;6.204;2023-04-25T06:20:33;10.90;62.80
49132;DHT22;35149;51.196;6.204;2023-04-25T06:23:00;10.80;62.80
49132;DHT22;35149;51.196;6.204;2023-04-25T06:25:39;10.90;63.10
49132;DHT22;35149;51.196;6.204;2023-04-25T06:28:06;10.90;62.80
49132;DHT22;35149;51.196;6.204;2023-04-25T06:30:33;10.90;62.80
49132;DHT22;35149;51.196;6.204;2023-04-25T06:33:05;10.90;62.70
49132;DHT22;35149;51.196;6.204;2023-04-25T06:35:32;10.90;62.80
49132;DHT22;35149;51.196;6.204;2023-04-25T06:37:59;11.00;62.90
49132;DHT22;35149;51.196;6.204;2023-04-25T06:40:26;11.00;62.90
49132;DHT22;35149;51.196;6.204;2023-04-25T06:42:53;11.00;62.60
49132;DHT22;35149;51.196;6.204;2023-04-25T06:45:36;11.10;62.50
49132;DHT22;35149;51.196;6.204;2023-04-25T06:48:07;11.10;62.30
49132;DHT22;35149;51.196;6.204;2023-04-25T06:50:34;11.20;62.40
49132;DHT22;35149;51.196;6.204;2023-04-25T06:53:01;11.20;62.40
49132;DHT22;35149;51.196;6.204;2023-04-25T06:55:29;11.30;62.40
49132;DHT22;35149;51.196;6.204;2023-04-25T06:58:08;11.30;62.20
49132;DHT22;35149;51.196;6.204;2023-04-25T07:00:50;11.30;61.70
49132;DHT22;35149;51.196;6.204;2023-04-25T07:03:20;11.40;61.20
49132;DHT22;35149;51.196;6.204;2023-04-25T07:05:47;11.40;60.70
49132;DHT22;35149;51.196;6.204;2023-04-25T07:08:17;11.40;60.50
49132;DHT22;35149;51.196;6.204;2023-04-25T07:10:43;11.40;60.10
49132;DHT22;35149;51.196;6.204;2023-04-25T07:13:15;11.40;61.00
49132;DHT22;35149;51.196;6.204;2023-04-25T07:15:42;11.40;60.60
49132;DHT22;35149;51.196;6.204;2023-04-25T07:18:10;11.40;60.90
49132;DHT22;35149;51.196;6.204;2023-04-25T07:20:39;11.50;61.20
49132;DHT22;35149;51.196;6.204;2023-04-25T07:23:08;11.60;61.30
49132;DHT22;35149;51.196;6.204;2023-04-25T07:25:35;11.60;60.80
49132;DHT22;35149;51.196;6.204;2023-04-25T07:28:01;11.70;60.20
49132;DHT22;35149;51.196;6.204;2023-04-25T07:30:28;11.80;59.90
49132;DHT22;35149;51.196;6.204;2023-04-25T07:32:55;11.80;59.50
49132;DHT22;35149;51.196;6.204;2023-04-25T07:35:24;11.90;59.20
49132;DHT22;35149;51.196;6.204;2023-04-25T07:37:51;12.00;59.20
49132;DHT22;35149;51.196;6.204;2023-04-25T07:40:20;12.00;59.10
49132;DHT22;35149;51.196;6.204;2023-04-25T07:42:50;12.10;58.90
49132;DHT22;35149;51.196;6.204;2023-04-25T07:45:27;12.10;58.20
49132;DHT22;35149;51.196;6.204;2023-04-25T07:47:54;12.20;58.20
49132;DHT22;35149;51.196;6.204;2023-04-25T07:50:23;12.30;57.70
49132;DHT22;35149;51.196;6.204;2023-04-25T07:52:50;12.30;57.70
49132;DHT22;35149;51.196;6.204;2023-04-25T07:55:24;12.40;57.00
49132;DHT22;35149;51.196;6.204;2023-04-25T07:58:09;12.40;56.80
49132;DHT22;35149;51.196;6.204;2023-04-25T08:00:39;12.50;56.70
49132;DHT22;35149;51.196;6.204;2023-04-25T08:03:28;12.50;56.30
49132;DHT22;35149;51.196;6.204;2023-04-25T08:05:57;12.60;55.60
49132;DHT22;35149;51.196;6.204;2023-04-25T08:08:26;12.60;55.50
49132;DHT22;35149;51.196;6.204;2023-04-25T08:10:53;12.70;55.40
49132;DHT22;35149;51.196;6.204;2023-04-25T08:13:20;12.60;54.90
49132;DHT22;35149;51.196;6.204;2023-04-25T08:15:50;12.60;54.70
49132;DHT22;35149;51.196;6.204;2023-04-25T08:18:17;12.60;54.30
49132;DHT22;35149;51.196;6.204;2023-04-25T08:20:46;12.60;54.40
49132;DHT22;35149;51.196;6.204;2023-04-25T08:23:14;12.60;54.60
49132;DHT22;35149;51.196;6.204;2023-04-25T08:25:50;12.60;54.80
49132;DHT22;35149;51.196;6.204;2023-04-25T08:28:21;12.70;55.20
49132;DHT22;35149;51.196;6.204;2023-04-25T08:30:50;12.70;55.50
49132;DHT22;35149;51.196;6.204;2023-04-25T08:33:18;12.80;54.90
49132;DHT22;35149;51.196;6.204;2023-04-25T08:35:47;12.90;54.70
49132;DHT22;35149;51.196;6.204;2023-04-25T08:38:18;12.90;54.00
49132;DHT22;35149;51.196;6.204;2023-04-25T08:40:51;12.90;53.40
49132;DHT22;35149;51.196;6.204;2023-04-25T08:43:20;12.80;53.40
49132;DHT22;35149;51.196;6.204;2023-04-25T08:45:50;12.80;53.30
49132;DHT22;35149;51.196;6.204;2023-04-25T08:48:45;12.70;53.40
49132;DHT22;35149;51.196;6.204;2023-04-25T08:51:22;12.60;53.30
49132;DHT22;35149;51.196;6.204;2023-04-25T08:53:52;12.60;53.20
49132;DHT22;35149;51.196;6.204;2023-04-25T08:56:24;12.50;53.50
49132;DHT22;35149;51.196;6.204;2023-04-25T08:58:55;12.60;53.70
49132;DHT22;35149;51.196;6.204;2023-04-25T09:01:22;12.70;54.10
49132;DHT22;35149;51.196;6.204;2023-04-25T09:03:53;12.70;53.90
49132;DHT22;35149;51.196;6.204;2023-04-25T09:06:25;12.80;53.10
49132;DHT22;35149;51.196;6.204;2023-04-25T09:08:52;12.80;52.90
49132;DHT22;35149;51.196;6.204;2023-04-25T09:11:24;12.80;53.20
49132;DHT22;35149;51.196;6.204;2023-04-25T09:14:19;12.90;53.70
49132;DHT22;35149;51.196;6.204;2023-04-25T09:17:24;12.90;52.40
49132;DHT22;35149;51.196;6.204;2023-04-25T09:19:54;13.00;52.00
49132;DHT22;35149;51.196;6.204;2023-04-25T09:22:28;13.00;52.20
49132;DHT22;35149;51.196;6.204;2023-04-25T09:24:57;13.00;52.50
49132;DHT22;35149;51.196;6.204;2023-04-25T09:27:27;13.10;52.10
49132;DHT22;35149;51.196;6.204;2023-04-25T09:30:10;13.10;51.30
49132;DHT22;35149;51.196;6.204;2023-04-25T09:33:06;13.10;51.50
49132;DHT22;35149;51.196;6.204;2023-04-25T09:35:43;13.10;51.90
49132;DHT22;35149;51.196;6.204;2023-04-25T09:38:24;13.10;52.20
49132;DHT22;35149;51.196;6.204;2023-04-25T09:41:08;13.20;51.40
49132;DHT22;35149;51.196;6.204;2023-04-25T09:43:40;13.20;51.70
49132;DHT22;35149;51.196;6.204;2023-04-25T09:46:11;13.20;51.70
49132;DHT22;35149;51.196;6.204;2023-04-25T09:48:51;13.20;51.90
49132;DHT22;35149;51.196;6.204;2023-04-25T09:51:31;13.30;51.80
49132;DHT22;35149;51.196;6.204;2023-04-25T09:54:01;13.40;51.80
49132;DHT22;35149;51.196;6.204;2023-04-25T09:56:48;13.40;51.60
49132;DHT22;35149;51.196;6.204;2023-04-25T09:59:21;13.50;50.80
49132;DHT22;35149;51.196;6.204;2023-04-25T10:01:49;13.60;50.90
49132;DHT22;35149;51.196;6.204;2023-04-25T10:04:33;13.70;49.20
49132;DHT22;35149;51.196;6.204;2023-04-25T10:07:15;13.70;48.90
49132;DHT22;35149;51.196;6.204;2023-04-25T10:09:47;13.70;48.90
49132;DHT22;35149;51.196;6.204;2023-04-25T10:12:17;13.60;49.60
49132;DHT22;35149;51.196;6.204;2023-04-25T10:14:49;13.60;49.80
49132;DHT22;35149;51.196;6.204;2023-04-25T10:17:20;13.60;49.70
49132;DHT22;35149;51.196;6.204;2023-04-25T10:19:51;13.50;50.50
49132;DHT22;35149;51.196;6.204;2023-04-25T10:22:37;13.50;49.90
49132;DHT22;35149;51.196;6.204;2023-04-25T10:25:06;13.60;49.60
49132;DHT22;35149;51.196;6.204;2023-04-25T10:27:35;13.60;50.40
49132;DHT22;35149;51.196;6.204;2023-04-25T10:30:07;13.70;50.40
49132;DHT22;35149;51.196;6.204;2023-04-25T10:32:36;13.80;49.40
49132;DHT22;35149;51.196;6.204;2023-04-25T10:35:19;13.80;49.30
49132;DHT22;35149;51.196;6.204;2023-04-25T10:40:26;13.90;48.20
49132;DHT22;35149;51.196;6.204;2023-04-25T10:42:53;14.00;49.60
49132;DHT22;35149;51.196;6.204;2023-04-25T10:45:28;14.10;48.60
49132;DHT22;35149;51.196;6.204;2023-04-25T10:47:54;14.10;48.30
49132;DHT22;35149;51.196;6.204;2023-04-25T10:50:37;14.10;48.10
49132;DHT22;35149;51.196;6.204;2023-04-25T10:53:14;14.20;48.50
49132;DHT22;35149;51.196;6.204;2023-04-25T10:55:56;14.20;48.30
49132;DHT22;35149;51.196;6.204;2023-04-25T10:58:24;14.30;47.80
49132;DHT22;35149;51.196;6.204;2023-04-25T11:00:52;14.30;48.20
49132;DHT22;35149;51.196;6.204;2023-04-25T11:03:24;14.30;48.00
49132;DHT22;35149;51.196;6.204;2023-04-25T11:05:54;14.40;47.50
49132;DHT22;35149;51.196;6.204;2023-04-25T11:08:47;14.40;47.90
49132;DHT22;35149;51.196;6.204;2023-04-25T11:11:16;14.50;47.20
49132;DHT22;35149;51.196;6.204;2023-04-25T11:13:43;14.40;47.60
49132;DHT22;35149;51.196;6.204;2023-04-25T11:16:17;14.50;47.60
49132;DHT22;35149;51.196;6.204;2023-04-25T11:18:51;14.40;47.50
49132;DHT22;35149;51.196;6.204;2023-04-25T11:21:18;14.40;47.90
49132;DHT22;35149;51.196;6.204;2023-04-25T11:23:46;14.30;47.90
49132;DHT22;35149;51.196;6.204;2023-04-25T11:26:15;14.20;47.70
49132;DHT22;35149;51.196;6.204;2023-04-25T11:28:45;14.10;48.70
49132;DHT22;35149;51.196;6.204;2023-04-25T11:31:15;14.00;48.50
49132;DHT22;35149;51.196;6.204;2023-04-25T11:33:42;13.80;48.70
49132;DHT22;35149;51.196;6.204;2023-04-25T11:36:12;13.70;49.10
49132;DHT22;35149;51.196;6.204;2023-04-25T11:38:39;13.70;49.60
49132;DHT22;35149;51.196;6.204;2023-04-25T11:41:10;13.60;50.50
49132;DHT22;35149;51.196;6.204;2023-04-25T11:43:44;13.50;50.50
49132;DHT22;35149;51.196;6.204;2023-04-25T11:46:11;13.60;51.20
49132;DHT22;35149;51.196;6.204;2023-04-25T11:48:39;13.60;50.90
49132;DHT22;35149;51.196;6.204;2023-04-25T11:51:09;13.60;50.80
49132;DHT22;35149;51.196;6.204;2023-04-25T11:53:35;13.70;50.60
49132;DHT22;35149;51.196;6.204;2023-04-25T11:56:09;13.80;50.50
49132;DHT22;35149;51.196;6.204;2023-04-25T12:04:30;14.00;49.50
49132;DHT22;35149;51.196;6.204;2023-04-25T12:06:58;14.00;48.40
49132;DHT22;35149;51.196;6.204;2023-04-25T12:09:31;14.00;49.50
49132;DHT22;35149;51.196;6.204;2023-04-25T12:12:00;14.10;49.60
49132;DHT22;35149;51.196;6.204;2023-04-25T12:14:34;14.10;48.40
49132;DHT22;35149;51.196;6.204;2023-04-25T12:17:03;14.20;47.50
49132;DHT22;35149;51.196;6.204;2023-04-25T12:19:34;14.20;47.80
49132;DHT22;35149;51.196;6.204;2023-04-25T12:22:19;14.30;48.10
49132;DHT22;35149;51.196;6.204;2023-04-25T12:24:49;14.40;48.10
49132;DHT22;35149;51.196;6.204;2023-04-25T12:27:17;14.40;47.80
49132;DHT22;35149;51.196;6.204;2023-04-25T12:29:53;14.50;48.10
49132;DHT22;35149;51.196;6.204;2023-04-25T12:32:20;14.60;47.10
49132;DHT22;35149;51.196;6.204;2023-04-25T12:34:47;14.70;47.00
49132;DHT22;35149;51.196;6.204;2023-04-25T12:37:14;14.80;46.70
49132;DHT22;35149;51.196;6.204;2023-04-25T12:39:41;14.80;46.80
49132;DHT22;35149;51.196;6.204;2023-04-25T12:42:07;14.90;45.90
49132;DHT22;35149;51.196;6.204;2023-04-25T12:44:45;14.90;46.10
49132;DHT22;35149;51.196;6.204;2023-04-25T12:47:12;15.10;45.70
49132;DHT22;35149;51.196;6.204;2023-04-25T12:49:40;15.10;46.00
49132;DHT22;35149;51.196;6.204;2023-04-25T12:52:08;15.20;46.30
49132;DHT22;35149;51.196;6.204;2023-04-25T12:54:34;15.20;46.70
49132;DHT22;35149;51.196;6.204;2023-04-25T12:57:11;15.30;47.00
49132;DHT22;35149;51.196;6.204;2023-04-25T12:59:46;15.20;46.90
49132;DHT22;35149;51.196;6.204;2023-04-25T13:02:20;15.20;46.90
49132;DHT22;35149;51.196;6.204;2023-04-25T13:04:47;15.10;46.90
49132;DHT22;35149;51.196;6.204;2023-04-25T13:07:15;15.00;47.10
49132;DHT22;35149;51.196;6.204;2023-04-25T13:09:43;14.80;46.80
49132;DHT22;35149;51.196;6.204;2023-04-25T13:12:09;14.70;46.80
49132;DHT22;35149;51.196;6.204;2023-04-25T13:14:41;14.50;47.20
49132;DHT22;35149;51.196;6.204;2023-04-25T13:17:10;14.40;47.20
49132;DHT22;35149;51.196;6.204;2023-04-25T13:19:38;14.30;47.50
49132;DHT22;35149;51.196;6.204;2023-04-25T13:22:07;14.30;48.00
49132;DHT22;35149;51.196;6.204;2023-04-25T13:24:35;14.30;48.30
49132;DHT22;35149;51.196;6.204;2023-04-25T13:27:02;14.30;47.80
49132;DHT22;35149;51.196;6.204;2023-04-25T13:29:31;14.40;47.40
49132;DHT22;35149;51.196;6.204;2023-04-25T13:32:09;14.60;47.80
49132;DHT22;35149;51.196;6.204;2023-04-25T13:34:36;14.70;48.00
49132;DHT22;35149;51.196;6.204;2023-04-25T13:37:02;14.80;47.40
49132;DHT22;35149;51.196;6.204;2023-04-25T13:39:33;14.90;46.80
49132;DHT22;35149;51.196;6.204;2023-04-25T13:42:03;14.90;46.00
49132;DHT22;35149;51.196;6.204;2023-04-25T13:44:29;15.00;46.10
49132;DHT22;35149;51.196;6.204;2023-04-25T13:46:56;15.10;45.40
49132;DHT22;35149;51.196;6.204;2023-04-25T13:49:24;15.20;46.90
49132;DHT22;35149;51.196;6.204;2023-04-25T13:51:51;15.50;46.90
49132;DHT22;35149;51.196;6.204;2023-04-25T13:54:18;15.80;46.40
49132;DHT22;35149;51.196;6.204;2023-04-25T13:56:47;16.10;45.40
49132;DHT22;35149;51.196;6.204;2023-04-25T13:59:14;16.40;45.90
49132;DHT22;35149;51.196;6.204;2023-04-25T14:01:44;17.00;46.70
49132;DHT22;35149;51.196;6.204;2023-04-25T14:04:11;17.80;47.70
49132;DHT22;35149;51.196;6.204;2023-04-25T14:06:40;18.80;46.60
49132;DHT22;35149;51.196;6.204;2023-04-25T14:09:07;19.50;43.50
49132;DHT22;35149;51.196;6.204;2023-04-25T14:11:40;20.10;42.50
49132;DHT22;35149;51.196;6.204;2023-04-25T14:14:07;20.40;41.30
49132;DHT22;35149;51.196;6.204;2023-04-25T14:16:33;20.50;39.10
49132;DHT22;35149;51.196;6.204;2023-04-25T14:19:05;20.40;38.70
49132;DHT22;35149;51.196;6.204;2023-04-25T14:21:36;20.20;38.70
49132;DHT22;35149;51.196;6.204;2023-04-25T14:24:13;20.30;40.10
49132;DHT22;35149;51.196;6.204;2023-04-25T14:26:42;20.60;40.10
49132;DHT22;35149;51.196;6.204;2023-04-25T14:29:09;21.00;40.50
49132;DHT22;35149;51.196;6.204;2023-04-25T14:31:42;21.50;39.20
49132;DHT22;35149;51.196;6.204;2023-04-25T14:34:11;21.90;37.20
49132;DHT22;35149;51.196;6.204;2023-04-25T14:36:40;22.00;35.80
49132;DHT22;35149;51.196;6.204;2023-04-25T14:39:07;22.10;35.60
49132;DHT22;35149;51.196;6.204;2023-04-25T14:41:35;22.30;35.20
49132;DHT22;35149;51.196;6.204;2023-04-25T14:44:06;22.70;35.60
49132;DHT22;35149;51.196;6.204;2023-04-25T14:46:38;23.20;34.50
49132;DHT22;35149;51.196;6.204;2023-04-25T14:49:06;23.80;35.30
49132;DHT22;35149;51.196;6.204;2023-04-25T14:51:35;24.50;34.80
49132;DHT22;35149;51.196;6.204;2023-04-25T14:54:04;25.10;34.30
49132;DHT22;35149;51.196;6.204;2023-04-25T14:56:31;25.80;32.30
49132;DHT22;35149;51.196;6.204;2023-04-25T14:59:03;26.40;32.10
49132;DHT22;35149;51.196;6.204;2023-04-25T15:01:30;26.80;31.30
49132;DHT22;35149;51.196;6.204;2023-04-25T15:04:01;27.10;31.00
49132;DHT22;35149;51.196;6.204;2023-04-25T15:06:34;27.30;31.20
49132;DHT22;35149;51.196;6.204;2023-04-25T15:09:01;27.50;30.90
49132;DHT22;35149;51.196;6.204;2023-04-25T15:11:28;27.60;30.10
49132;DHT22;35149;51.196;6.204;2023-04-25T15:13:57;27.60;29.40
49132;DHT22;35149;51.196;6.204;2023-04-25T15:16:24;27.30;29.10
49132;DHT22;35149;51.196;6.204;2023-04-25T15:18:52;26.80;28.10
49132;DHT22;35149;51.196;6.204;2023-04-25T15:21:19;26.30;28.70
49132;DHT22;35149;51.196;6.204;2023-04-25T15:23:50;25.90;29.00
49132;DHT22;35149;51.196;6.204;2023-04-25T15:26:19;25.70;28.30
49132;DHT22;35149;51.196;6.204;2023-04-25T15:28:51;25.40;28.90
49132;DHT22;35149;51.196;6.204;2023-04-25T15:31:28;24.90;28.50
49132;DHT22;35149;51.196;6.204;2023-04-25T15:33:54;24.30;28.80
49132;DHT22;35149;51.196;6.204;2023-04-25T15:36:23;23.80;29.70
49132;DHT22;35149;51.196;6.204;2023-04-25T15:38:50;23.50;30.20
49132;DHT22;35149;51.196;6.204;2023-04-25T15:41:21;23.40;31.00
49132;DHT22;35149;51.196;6.204;2023-04-25T15:43:52;23.30;30.50
49132;DHT22;35149;51.196;6.204;2023-04-25T15:46:20;23.10;30.50
49132;DHT22;35149;51.196;6.204;2023-04-25T15:48:49;22.80;30.40
49132;DHT22;35149;51.196;6.204;2023-04-25T15:51:15;22.30;30.40
49132;DHT22;35149;51.196;6.204;2023-04-25T15:53:45;21.80;30.50
49132;DHT22;35149;51.196;6.204;2023-04-25T15:56:12;21.30;30.80
49132;DHT22;35149;51.196;6.204;2023-04-25T15:58:39;20.70;31.50
49132;DHT22;35149;51.196;6.204;2023-04-25T16:01:05;20.40;33.30
49132;DHT22;35149;51.196;6.204;2023-04-25T16:03:32;20.50;34.60
49132;DHT22;35149;51.196;6.204;2023-04-25T16:06:15;20.90;34.40